Seatac, WA

1:12 AM PDT on October 25, 2014 (GMT -0700)
Seattle-Tacoma International | Change Station
CLOSE
Current Station
Airport
Location: Seattle,
Elevation: 433 ft
Nearby Weather Stations

Elev 433 ft 47.44 °N, 122.31 °W | Updated 19 minutes ago

Overcast
Overcast
50 °F
Feels Like 50 °F
N
7
Wind Variable Wind from NNW

Today
High -- | Low -- °F
--% Chance of Precip.
Yesterday
High -- | Low -- °F
Precip. -- in
7:42 AM 6:03 PM
New Moon, 2% visible
Pressure 29.72 in
Visibility 10.0 miles
Clouds Scattered Clouds 6000 ft
Overcast 9000 ft
Dew Point 47 °F
Humidity 89%
Rainfall 0.00 in
Snow Depth Not available.
UV 0 out of 12
Pollen .40 out of 12
Air Quality Not available.
Flu Activity Sporadic
METAR KSEA 250753Z 33006KT 10SM SCT060 OVC090 10/08 A2970 RMK AO2 SLP064 T01000083 401440089

More Conditions Fewer Conditions

Pressure 29.72 in
Visibility 10.0 miles
Clouds Scattered Clouds 6000 ft
Overcast 9000 ft
Dew Point 47 °F
Humidity 89%
Rainfall 0.00 in
Snow Depth Not available.
UV 0 out of 12
Pollen .40 out of 12
Air Quality Not available.
Flu Activity Sporadic
METAR KSEA 250753Z 33006KT 10SM SCT060 OVC090 10/08 A2970 RMK AO2 SLP064 T01000083 401440089

More Conditions Fewer Conditions

10-Day Weather Forecast

Almanac

Astronomy

Oct. 25, 2014 Rise Set
Actual Time 7:42 AM PDT 6:03 PM PDT
Civil Twilight 7:11 AM PDT 6:34 PM PDT
Nautical Twilight 6:35 AM PDT 7:10 PM PDT
Astronomical Twilight 5:59 AM PDT 7:46 PM PDT
Moon 9:32 AM PDT 7:24 PM PDT
Length of Visible Light 11h 23m
Length of Day
10h 20m
Tomorrow will be 3m 11s shorter.
New Moon, 2% of the Moon is Illuminated
Today
New Moon
Oct 30
First Quarter
Nov 6
Full
Nov 14
Last Quarter
Nov 22
New

Today's Extremes

State Highs State Lows

Community

WunderPhotos

Upload Photos

1,764,791 photos uploaded!

Nearby

Air Quality

  Air Quality AQ Index Pollutant
Friday Good
PM2.5
Saturday Good
PM2.5
Sunday Good
PM2.5
Monday Good
PM2.5
Tuesday Good
PM2.5
Wednesday Good
PM2.5

Snow Depth

Station Depth Elevation
Rex River 0 in 4000 ft
Cougar Mountain 0 in 3200 ft
Mount Gardner 0 in 3000 ft
Burnt Mountain 0 in 4200 ft
Alpine Meadows 0 in 3500 ft

Earthquake Activity

City Distance Mag. Time & Date
Birch Bay, Washington 98 miles 2.8 3:02 AM PDT
2014-10-24
Minimum magnitude displayed is 2.5.

Coastal Water Temperatures

Place Temperature
Port Townsend, WA 52.0 °F
Seattle, WA 55.0 °F
Friday Harbor, WA 51.1 °F
Tacoma, WA 54.0 °F

Nearby Weather Stations